This is the latest recevied packets stored in our database for station/object DB0LER. If no packets are shown the sender has not sent any packets the latest 24 hours.

If you compare the raw packets with similar data from other websites it may differ (especially the path), the reason is that we are not collecting packets from the same APRS-IS servers. Each APRS-IS server performes duplicate filtering, and which packet that is considered to be a duplicate may differ depending on which APRS-IS server you receive your data from.

1618986236: DB0LER>APRX29,TCPIP*,qAC,DB0GW:T#053,125.0,125,395,,, Testing

1618986267: DB0LER>APRX29,DB0PDF-10,DB0DAM*,qAR,DG1YHR-10:T#053,125.0,125,395,,, Testing

1618986392: DB0LER>APRX29,TCPIP*,qAC,DB0GW:!5313.29N/00726.95E#APRS-Digi Leer

1618986438: DB0LER>APRX29,TCPIP*,qAC,DB0GW::DB0LER :EQNS.0,0.1,0,0,0.1,0,0,0.1,0

1618986438: DB0LER>APRX29,TCPIP*,qAC,DB0GW::DB0LER :UNIT.C,C,%

1618986438: DB0LER>APRX29,TCPIP*,qAC,DB0GW::DB0LER :PARM.Temp1,Temp2,Feuchte

1618986581: DB0LER>APRX29,TCPIP*,qAC,DB0GW:T#038,128.999996185,128,395,,, Testing

1618986903: DB0LER>APRX29,TCPIP*,qAC,DB0GW:T#052,136.999998093,136,395,,, Testing

1618987257: DB0LER>APRX29,TCPIP*,qAC,DB0GW:T#017,135.0,135,392,,, Testing

1618987293: DB0LER>APRX29,DB0PDF-10*,WIDE2-1,qAR,DL5XL-10:T#017,135.0,135,392,,, Testing

1618987610: DB0LER>APRX29,TCPIP*,qAC,DB0GW:T#072,141.000003815,141,400,,, Testing

1618987929: DB0LER>APRX29,TCPIP*,qAC,DB0GW:T#086,143.000001907,143,400,,, Testing

1618988167: DB0LER>APRX29,TCPIP*,qAC,DB0GW:!5313.29N/00726.95E#APRS-Digi Leer

1618988267: DB0LER>APRX29,TCPIP*,qAC,DB0GW:T#039,143.000001907,143,412,,, Testing

1618988582: DB0LER>APRX29,TCPIP*,qAC,DB0GW:T#070,141.999998093,141,415,,, Testing

1618988618: DB0LER>APRX29,DB0PDF-10*,WIDE2-1,qAR,DB0ROD:T#070,141.999998093,141,415,,, Testing

1618988897: DB0LER>APRX29,TCPIP*,qAC,DB0GW:T#096,143.999996185,143,422,,, Testing

1618989196: DB0LER>APRX29,TCPIP*,qAC,DB0GW:T#081,145.0,145,422,,, Testing

1618989492: DB0LER>APRX29,TCPIP*,qAC,DB0GW:T#010,148.999996185,148,427,,, Testing

1618989637: DB0LER>APRX29,TCPIP*,qAC,DB0GW:!5313.29N/00726.95E#APRS-Digi Leer

1618989702: DB0LER>APRX29,TCPIP*,qAC,DB0GW::DB0LER :PARM.Temp1,Temp2,Feuchte

1618989703: DB0LER>APRX29,TCPIP*,qAC,DB0GW::DB0LER :EQNS.0,0.1,0,0,0.1,0,0,0.1,0

1618989703: DB0LER>APRX29,TCPIP*,qAC,DB0GW::DB0LER :UNIT.C,C,%

1618989842: DB0LER>APRX29,TCPIP*,qAC,DB0GW:T#068,143.999996185,143,427,,, Testing

1618989910: DB0LER>APRX29,DB0PDF-10*,WIDE2-1,qAR,DB0HFT-10:T#068,143.999996185,143,427,,, Testing

Initial position
Current position
Ruler